Time;durP1;ratioP1;P1;durP2;ratioP2;P2;SDS_P1;SDS_P2;PMS_P1;PMS_P2;Temp;Humidity;BMP_temperature;BMP_pressure;BME280_temperature;BME280_humidity;BME280_pressure;Samples;Min_cycle;Max_cycle;Signal;HPM_P1;HPM_P2
2020/12/06 00:02:07;;;;;;;30.63;27.33;;;;;;;5.00;63.92;96227.53;8308490;28;20205;-73
2020/12/06 00:06:10;;;;;;;30.20;26.90;;;;;;;4.88;64.19;96206.72;8310106;28;20227;-73
2020/12/06 00:10:17;;;;;;;32.17;27.67;;;;;;;4.77;64.62;96196.16;8264026;28;20193;-72
2020/12/06 00:14:19;;;;;;;30.00;26.67;;;;;;;4.88;64.74;96195.63;8264418;28;20205;-72
2020/12/06 00:18:20;;;;;;;29.37;26.07;;;;;;;4.94;64.30;96186.81;8284222;28;20585;-72
2020/12/06 00:22:23;;;;;;;30.37;26.27;;;;;;;4.96;64.33;96167.03;8297063;28;20197;-71
2020/12/06 00:26:26;;;;;;;31.53;26.27;;;;;;;5.00;63.90;96160.84;8296183;28;20229;-71
2020/12/06 00:30:27;;;;;;;29.80;26.43;;;;;;;4.99;64.11;96148.91;8296170;28;20410;-71
2020/12/06 00:34:29;;;;;;;30.30;25.60;;;;;;;4.98;64.64;96147.25;8296304;28;20197;-72
2020/12/06 00:38:32;;;;;;;29.57;25.80;;;;;;;5.01;64.27;96168.44;8297245;28;20241;-72
2020/12/06 00:42:34;;;;;;;29.40;25.53;;;;;;;5.06;64.04;96184.44;8296308;28;20281;-71
2020/12/06 00:46:36;;;;;;;31.80;26.77;;;;;;;5.08;64.02;96174.09;8296110;28;20229;-72
2020/12/06 00:50:37;;;;;;;29.03;24.70;;;;;;;5.06;64.36;96163.06;8296090;28;20211;-72
2020/12/06 00:54:40;;;;;;;27.20;23.80;;;;;;;5.06;64.68;96171.63;8295531;28;20235;-72
2020/12/06 00:58:41;;;;;;;27.83;23.77;;;;;;;5.07;64.70;96169.88;8295510;28;20223;-72
2020/12/06 01:02:43;;;;;;;27.00;24.10;;;;;;;5.09;64.58;96161.19;8288733;28;20234;-72
2020/12/06 01:06:45;;;;;;;31.07;24.50;;;;;;;5.15;64.64;96175.44;8262897;28;20253;-72
2020/12/06 01:10:47;;;;;;;26.83;23.43;;;;;;;5.10;64.81;96200.50;8263197;28;20649;-72
2020/12/06 01:14:49;;;;;;;27.30;24.03;;;;;;;5.13;64.58;96172.13;8262424;28;20205;-71
2020/12/06 01:18:51;;;;;;;26.83;23.80;;;;;;;5.14;64.63;96171.22;8262649;28;20202;-71
2020/12/06 01:22:53;;;;;;;26.60;23.70;;;;;;;5.19;64.11;96174.38;8263321;28;20220;-72
2020/12/06 01:26:55;;;;;;;26.93;24.03;;;;;;;5.12;64.20;96182.47;8262856;28;20596;-72
2020/12/06 01:30:57;;;;;;;31.57;26.40;;;;;;;5.13;63.92;96179.81;8262526;28;20216;-75
2020/12/06 01:34:59;;;;;;;28.20;24.17;;;;;;;5.12;64.25;96179.91;8263066;28;20472;-73
2020/12/06 01:39:01;;;;;;;27.53;23.10;;;;;;;5.11;64.49;96171.38;8263108;28;20692;-73
2020/12/06 01:43:04;;;;;;;27.77;24.47;;;;;;;5.13;64.28;96176.44;8263457;28;20259;-73
2020/12/06 01:47:05;;;;;;;26.90;23.70;;;;;;;5.16;64.44;96166.00;8263512;28;20233;-73
2020/12/06 01:51:07;;;;;;;27.40;23.50;;;;;;;5.16;64.66;96160.88;8262820;28;20209;-73
2020/12/06 01:55:12;;;;;;;29.63;24.77;;;;;;;5.20;64.96;96158.06;8262070;28;20201;-73
2020/12/06 01:59:15;;;;;;;27.63;24.17;;;;;;;5.29;65.02;96149.06;8261972;28;20665;-73
2020/12/06 02:03:16;;;;;;;29.27;25.57;;;;;;;5.21;64.61;96133.22;8262361;28;20271;-74
2020/12/06 02:07:18;;;;;;;27.40;22.93;;;;;;;5.24;64.87;96138.22;8264245;28;20266;-74
2020/12/06 02:11:30;;;;;;;25.97;23.20;;;;;;;5.19;64.44;96128.19;8268066;28;20201;-73
2020/12/06 02:15:34;;;;;;;29.40;23.63;;;;;;;5.17;64.47;96116.34;8267674;28;20190;-73
2020/12/06 02:19:35;;;;;;;25.97;22.87;;;;;;;5.16;64.53;96115.53;8267094;28;20221;-73
2020/12/06 02:23:39;;;;;;;29.25;26.13;;;;;;;5.32;64.21;96130.94;8271738;28;20451;-75
2020/12/06 02:27:41;;;;;;;28.63;24.80;;;;;;;5.18;64.82;96107.72;8283825;28;20248;-74
2020/12/06 02:31:43;;;;;;;27.57;24.13;;;;;;;5.21;64.36;96098.13;8267034;28;20205;-74
2020/12/06 02:35:45;;;;;;;29.57;23.77;;;;;;;5.22;64.41;96104.13;8279879;28;20216;-73
2020/12/06 02:39:50;;;;;;;27.80;24.27;;;;;;;5.13;64.51;96105.41;8281386;28;20197;-73
2020/12/06 02:43:51;;;;;;;29.07;24.10;;;;;;;5.04;64.06;96078.47;8278253;28;20200;-73
2020/12/06 02:47:53;;;;;;;27.27;23.87;;;;;;;5.05;64.34;96100.69;8292833;28;20248;-73
2020/12/06 02:51:55;;;;;;;28.83;24.50;;;;;;;5.08;64.14;96097.13;8298854;28;20249;-73
2020/12/06 02:55:57;;;;;;;26.70;22.93;;;;;;;5.09;64.12;96096.22;8299000;28;20198;-73
2020/12/06 02:59:59;;;;;;;27.20;23.40;;;;;;;5.05;64.02;96092.16;8299039;28;20503;-73
2020/12/06 03:04:01;;;;;;;27.17;24.20;;;;;;;5.01;63.90;96078.66;8280810;28;20288;-73
2020/12/06 03:08:03;;;;;;;26.60;23.70;;;;;;;4.99;64.06;96071.94;8266287;28;20241;-73
2020/12/06 03:12:06;;;;;;;26.83;23.43;;;;;;;5.07;63.69;96083.47;8266109;28;20641;-73
2020/12/06 03:16:08;;;;;;;25.67;22.97;;;;;;;5.04;63.87;96087.91;8265569;28;20208;-73
2020/12/06 03:20:09;;;;;;;26.73;23.57;;;;;;;5.00;63.95;96078.72;8265653;28;20202;-73
2020/12/06 03:24:11;;;;;;;25.20;22.50;;;;;;;4.96;64.43;96067.81;8265869;28;20225;-73
2020/12/06 03:28:14;;;;;;;24.60;21.93;;;;;;;4.96;64.16;96070.38;8265796;28;20229;-73
2020/12/06 03:32:15;;;;;;;27.50;22.97;;;;;;;5.00;64.12;96081.31;8264922;28;20206;-73
2020/12/06 03:36:17;;;;;;;26.17;22.83;;;;;;;5.09;63.58;96091.91;8264637;28;20209;-73
2020/12/06 03:40:19;;;;;;;25.60;22.87;;;;;;;4.97;63.89;96090.00;8265521;28;20652;-73
2020/12/06 03:44:22;;;;;;;26.07;23.13;;;;;;;5.10;63.45;96105.56;8264391;28;20248;-73
2020/12/06 03:48:23;;;;;;;26.87;23.97;;;;;;;5.09;63.34;96093.66;8264225;28;20238;-73
2020/12/06 03:52:25;;;;;;;27.10;22.90;;;;;;;5.04;63.44;96101.56;8263219;28;20216;-73
2020/12/06 03:56:27;;;;;;;25.77;22.97;;;;;;;5.01;63.65;96095.81;8264264;28;20205;-73
2020/12/06 04:00:30;;;;;;;28.37;23.80;;;;;;;4.93;63.66;96093.63;8264336;28;20205;-74
2020/12/06 04:04:31;;;;;;;26.60;23.33;;;;;;;4.91;63.63;96082.59;8264157;28;20300;-73
2020/12/06 04:08:33;;;;;;;25.77;22.93;;;;;;;4.95;63.99;96090.97;8264260;28;20249;-73
2020/12/06 04:12:35;;;;;;;26.47;23.67;;;;;;;4.95;63.74;96096.09;8264284;28;20206;-73
2020/12/06 04:16:37;;;;;;;25.87;23.07;;;;;;;4.85;63.64;96104.25;8264050;28;20201;-73
2020/12/06 04:20:39;;;;;;;26.13;22.87;;;;;;;4.86;63.64;96111.06;8264229;28;20569;-73
2020/12/06 04:24:41;;;;;;;24.77;22.13;;;;;;;4.97;63.53;96110.53;8263513;28;20292;-73
2020/12/06 04:28:42;;;;;;;27.13;22.93;;;;;;;4.92;63.44;96096.28;8262880;28;20226;-73
2020/12/06 04:32:45;;;;;;;24.57;21.87;;;;;;;4.91;63.25;96095.41;8264326;28;20204;-73
2020/12/06 04:36:47;;;;;;;27.93;23.87;;;;;;;4.78;63.74;96094.38;8263978;28;20209;-73
2020/12/06 04:40:48;;;;;;;27.67;24.40;;;;;;;4.83;63.78;96071.91;8263275;28;20209;-73
2020/12/06 04:44:50;;;;;;;28.80;24.17;;;;;;;4.85;63.76;96060.66;8263987;28;20277;-73
2020/12/06 04:49:03;;;;;;;28.10;23.90;;;;;;;4.82;63.81;96049.75;8262826;28;20222;-73
2020/12/06 04:53:06;;;;;;;30.87;25.63;;;;;;;4.86;63.60;96036.69;8263714;28;20201;-73
2020/12/06 04:57:10;;;;;;;26.73;23.23;;;;;;;4.84;63.86;96020.53;8262947;28;20206;-73
2020/12/06 05:01:13;;;;;;;25.83;21.97;;;;;;;4.93;63.51;96006.41;8263138;28;20213;-73
2020/12/06 05:05:18;;;;;;;29.27;23.83;;;;;;;4.74;64.48;95998.88;8262803;28;20217;-73
2020/12/06 05:09:21;;;;;;;26.97;23.10;;;;;;;4.82;64.81;96027.50;8263418;28;20245;-73
2020/12/06 05:13:23;;;;;;;27.43;22.77;;;;;;;4.99;64.31;96053.97;8263189;28;20240;-73
2020/12/06 05:17:24;;;;;;;26.10;22.80;;;;;;;4.94;63.55;96049.09;8262323;28;20217;-73
2020/12/06 05:21:34;;;;;;;25.13;22.40;;;;;;;4.93;63.22;96024.38;8262751;28;20202;-73
2020/12/06 05:25:36;;;;;;;27.40;22.87;;;;;;;4.87;63.72;96012.69;8262505;28;20209;-73
2020/12/06 05:29:42;;;;;;;24.90;22.03;;;;;;;4.88;63.97;96027.16;8262961;28;20304;-73
2020/12/06 05:33:44;;;;;;;25.33;22.03;;;;;;;4.90;64.06;96027.91;8263040;28;20208;-73
2020/12/06 05:37:46;;;;;;;27.90;23.03;;;;;;;4.76;63.77;96020.13;8262814;28;20216;-73
2020/12/06 05:41:49;;;;;;;27.47;22.50;;;;;;;4.82;64.09;96019.78;8264422;28;20498;-73
2020/12/06 05:46:01;;;;;;;25.23;22.43;;;;;;;4.92;63.84;96030.41;8268592;28;20202;-73
2020/12/06 05:50:04;;;;;;;26.03;22.00;;;;;;;4.89;63.50;96044.22;8268983;28;20648;-74
2020/12/06 05:54:07;;;;;;;28.47;23.67;;;;;;;4.88;63.58;96059.69;8268741;28;20205;-74
2020/12/06 05:58:09;;;;;;;26.57;23.77;;;;;;;4.86;63.46;96082.84;8268488;28;20210;-73
2020/12/06 06:02:13;;;;;;;29.03;24.33;;;;;;;4.85;63.20;96060.66;8268535;28;20244;-74
2020/12/06 06:06:21;;;;;;;26.53;23.43;;;;;;;4.73;63.76;96088.69;8267804;28;20210;-74
2020/12/06 06:10:33;;;;;;;28.27;24.07;;;;;;;4.82;63.81;96080.53;8268240;28;20626;-73
2020/12/06 06:14:37;;;;;;;24.83;22.20;;;;;;;4.81;63.74;96078.84;8268223;28;20194;-73
2020/12/06 06:18:40;;;;;;;25.53;22.10;;;;;;;4.79;63.72;96089.19;8268385;28;20249;-72
2020/12/06 06:22:44;;;;;;;28.30;23.33;;;;;;;4.80;63.57;96088.28;8267924;28;20198;-72
2020/12/06 06:26:49;;;;;;;28.10;23.23;;;;;;;4.64;63.90;96092.53;8267366;28;20226;-72
2020/12/06 06:30:55;;;;;;;26.20;22.50;;;;;;;4.70;63.93;96092.22;8267826;28;20282;-73
2020/12/06 06:34:57;;;;;;;26.67;22.43;;;;;;;4.79;63.45;96080.69;8267456;28;20209;-72
2020/12/06 06:38:59;;;;;;;26.73;23.10;;;;;;;4.78;63.38;96079.00;8267328;28;20205;-72
2020/12/06 06:43:05;;;;;;;25.20;22.50;;;;;;;4.76;63.23;96078.25;8267033;28;20214;-74
2020/12/06 06:47:09;;;;;;;26.63;23.17;;;;;;;4.79;63.01;96076.38;8266794;28;20218;-73
2020/12/06 06:51:17;;;;;;;28.23;23.47;;;;;;;4.74;63.15;96073.22;8266854;28;20234;-73
2020/12/06 06:55:19;;;;;;;25.53;22.83;;;;;;;4.75;63.17;96069.75;8267250;28;20230;-73
2020/12/06 06:59:37;;;;;;;26.27;22.40;;;;;;;4.73;63.49;96104.06;8267700;28;20212;-74
2020/12/06 07:03:43;;;;;;;25.00;21.93;;;;;;;4.78;62.92;96086.69;8267337;28;20676;-72
2020/12/06 07:07:46;;;;;;;26.70;23.17;;;;;;;4.70;62.74;96080.25;8266343;28;20316;-73
2020/12/06 07:11:48;;;;;;;26.50;23.60;;;;;;;4.66;63.26;96091.56;8266776;28;20217;-73
2020/12/06 07:15:51;;;;;;;27.90;24.00;;;;;;;4.64;62.99;96103.63;8266971;28;20632;-73
2020/12/06 07:19:52;;;;;;;29.80;24.60;;;;;;;4.64;63.00;96124.13;8267319;28;20275;-73
2020/12/06 07:23:54;;;;;;;29.67;25.57;;;;;;;4.56;62.97;96125.44;8266971;28;20214;-73
2020/12/06 07:27:56;;;;;;;30.70;25.10;;;;;;;4.58;63.17;96121.88;8266001;28;20229;-73
2020/12/06 07:31:59;;;;;;;36.83;27.30;;;;;;;4.53;62.94;96089.69;8269195;28;20523;-73
2020/12/06 07:36:02;;;;;;;32.73;27.17;;;;;;;4.60;63.19;96096.97;8282333;28;20209;-73
2020/12/06 07:40:05;;;;;;;28.97;24.17;;;;;;;4.66;62.51;96088.16;8280069;28;20225;-73
2020/12/06 07:44:06;;;;;;;28.23;24.63;;;;;;;4.65;62.52;96081.38;8277587;28;20266;-73
2020/12/06 07:48:19;;;;;;;26.77;23.87;;;;;;;4.52;63.03;96052.97;8266818;28;20229;-73
2020/12/06 07:52:22;;;;;;;28.00;22.93;;;;;;;4.68;62.59;96055.56;8263569;28;20230;-74
2020/12/06 07:56:24;;;;;;;27.93;23.27;;;;;;;4.65;63.17;96063.44;8264122;28;20213;-73
2020/12/06 08:00:29;;;;;;;25.57;21.97;;;;;;;4.75;62.88;96058.66;8263463;28;20210;-74
2020/12/06 08:04:36;;;;;;;25.27;22.57;;;;;;;4.73;62.89;96070.75;8263706;28;20536;-74
2020/12/06 08:08:39;;;;;;;27.47;22.13;;;;;;;4.78;63.30;96073.88;8264526;28;20310;-74
2020/12/06 08:12:43;;;;;;;32.20;26.90;;;;;;;4.82;63.03;96081.34;8264721;28;20209;-74
2020/12/06 08:16:55;;;;;;;26.53;23.30;;;;;;;4.82;63.12;96099.31;8263828;28;20202;-74
2020/12/06 08:20:58;;;;;;;27.17;23.50;;;;;;;4.85;63.32;96075.22;8263030;28;20193;-75
2020/12/06 08:25:05;;;;;;;28.80;24.50;;;;;;;4.88;63.26;96070.75;8263513;28;20233;-75
2020/12/06 08:29:06;;;;;;;28.73;25.23;;;;;;;4.93;63.22;96073.09;8263942;28;20676;-75
2020/12/06 08:33:08;;;;;;;29.70;24.40;;;;;;;4.95;63.20;96107.19;8263723;28;20201;-73
2020/12/06 08:37:15;;;;;;;28.80;25.33;;;;;;;4.96;63.46;96101.16;8262961;28;20213;-74
2020/12/06 08:41:24;;;;;;;28.73;24.57;;;;;;;4.97;63.56;96105.38;8262299;28;20286;-73
2020/12/06 08:45:25;;;;;;;28.50;25.00;;;;;;;5.03;63.52;96122.19;8264956;28;20637;-74
2020/12/06 08:49:27;;;;;;;29.73;26.53;;;;;;;5.05;63.45;96126.34;8264961;28;20233;-74
2020/12/06 08:53:42;;;;;;;36.13;31.63;;;;;;;5.15;63.30;96146.41;8264646;28;20240;-74
2020/12/06 08:57:45;;;;;;;40.37;33.60;;;;;;;5.13;63.74;96146.47;8264054;28;20644;-75
2020/12/06 09:01:47;;;;;;;33.60;28.10;;;;;;;5.15;63.43;96152.34;8267537;28;20197;-74
2020/12/06 09:05:49;;;;;;;30.10;26.83;;;;;;;5.07;63.94;96151.91;8264833;28;20213;-74
2020/12/06 09:09:52;;;;;;;26.00;23.30;;;;;;;5.08;63.87;96138.16;8264130;28;20276;-74
2020/12/06 09:13:53;;;;;;;26.77;23.90;;;;;;;4.90;64.25;96112.56;8268059;28;20193;-74
2020/12/06 09:17:55;;;;;;;27.33;24.43;;;;;;;5.02;63.99;96121.34;8268944;28;20666;-74
2020/12/06 09:21:57;;;;;;;32.93;26.20;;;;;;;5.03;64.08;96124.75;8275206;28;20225;-75
2020/12/06 09:26:01;;;;;;;30.27;24.53;;;;;;;5.21;64.12;96105.81;8269971;28;20194;-74
2020/12/06 09:30:03;;;;;;;30.67;26.63;;;;;;;5.08;64.57;96117.63;8272299;28;20232;-74
2020/12/06 09:34:05;;;;;;;34.50;28.00;;;;;;;5.27;64.04;96133.75;8276867;28;20267;-75
2020/12/06 09:38:09;;;;;;;32.70;28.40;;;;;;;5.35;64.12;96153.03;8282729;28;20201;-74
2020/12/06 09:42:11;;;;;;;33.90;28.77;;;;;;;5.34;64.24;96148.84;8284205;28;20198;-74
2020/12/06 09:46:14;;;;;;;35.30;29.33;;;;;;;5.32;64.13;96158.34;8291451;28;20205;-74
2020/12/06 09:50:15;;;;;;;39.07;21.97;;;;;;;7.48;88.77;96163.34;8301856;28;20265;-75
2020/12/06 09:54:17;;;;;;;30.53;23.30;;;;;;;8.70;69.45;96163.47;8302419;28;20208;-74
2020/12/06 09:58:20;;;;;;;34.13;26.03;;;;;;;9.09;59.85;96141.13;8301885;28;20255;-75
2020/12/06 10:02:21;;;;;;;30.30;25.73;;;;;;;9.63;56.55;96145.19;8298476;28;20206;-73
2020/12/06 10:06:24;;;;;;;72.47;47.57;;;;;;;8.95;60.47;96132.56;8269104;28;20236;-73
2020/12/06 10:10:26;;;;;;;74.57;45.13;;;;;;;8.94;61.72;96115.41;8266523;28;20222;-72
2020/12/06 10:14:28;;;;;;;37.60;30.30;;;;;;;7.61;57.65;96114.47;8268714;28;20198;-73
2020/12/06 10:18:31;;;;;;;164.23;147.10;;;;;;;8.15;65.53;96111.94;8273754;28;20276;-72
2020/12/06 10:22:32;;;;;;;37.90;31.80;;;;;;;7.21;58.99;96122.06;8268630;28;20248;-74
2020/12/06 10:26:39;;;;;;;37.43;31.70;;;;;;;6.80;60.49;96118.47;8268616;28;20240;-73
2020/12/06 10:30:41;;;;;;;35.30;30.07;;;;;;;6.55;60.87;96113.09;8268554;28;20237;-73
2020/12/06 10:34:43;;;;;;;41.10;33.50;;;;;;;6.54;61.49;96114.84;8286466;28;20240;-73
2020/12/06 10:38:45;;;;;;;71.73;51.73;;;;;;;7.02;68.84;96115.44;8290890;28;20565;-74
2020/12/06 10:42:48;;;;;;;62.23;42.60;;;;;;;7.38;67.70;96114.16;8269876;28;20202;-73
2020/12/06 10:46:51;;;;;;;41.13;32.80;;;;;;;6.57;61.36;96109.53;8268498;28;20209;-73
2020/12/06 10:50:54;;;;;;;42.77;34.20;;;;;;;6.42;61.89;96108.66;8268474;28;20230;-73
2020/12/06 10:54:56;;;;;;;47.40;35.60;;;;;;;6.29;62.33;96100.00;8267884;28;20213;-74
2020/12/06 10:58:59;;;;;;;42.53;34.20;;;;;;;6.29;62.39;96099.19;8268254;28;20201;-73
2020/12/06 11:03:02;;;;;;;50.00;37.13;;;;;;;6.21;62.84;96094.47;8267793;28;20209;-73
2020/12/06 11:07:03;;;;;;;48.63;34.53;;;;;;;6.20;63.08;96110.78;8267029;28;20288;-73
2020/12/06 11:11:05;;;;;;;49.40;37.07;;;;;;;6.22;63.42;96107.22;8267363;28;20202;-74
2020/12/06 11:15:07;;;;;;;49.57;37.57;;;;;;;6.22;63.33;96111.53;8266698;28;20208;-73
2020/12/06 11:19:10;;;;;;;52.43;38.53;;;;;;;6.19;63.71;96116.88;8266890;28;20209;-73
2020/12/06 11:23:11;;;;;;;49.43;36.73;;;;;;;6.15;63.88;96125.63;8266426;28;20205;-73
2020/12/06 11:27:13;;;;;;;49.47;36.23;;;;;;;6.21;63.69;96121.00;8266139;28;20206;-73
2020/12/06 11:31:15;;;;;;;51.03;38.40;;;;;;;6.20;63.93;96134.75;8265858;28;20201;-73
2020/12/06 11:35:18;;;;;;;51.60;36.67;;;;;;;6.19;63.57;96140.00;8267086;28;20202;-73
2020/12/06 11:39:20;;;;;;;51.03;37.43;;;;;;;6.17;63.73;96139.22;8267109;28;20205;-73
2020/12/06 11:43:21;;;;;;;52.73;38.80;;;;;;;6.16;63.95;96127.31;8266863;28;20202;-74
2020/12/06 11:47:24;;;;;;;54.03;39.27;;;;;;;6.16;64.08;96127.31;8274284;28;20197;-74
2020/12/06 11:51:26;;;;;;;48.70;35.77;;;;;;;6.19;63.73;96142.56;8286446;28;20208;-74
2020/12/06 11:55:28;;;;;;;48.20;36.30;;;;;;;6.19;63.69;96132.28;8298884;28;20205;-74
2020/12/06 11:59:29;;;;;;;52.97;39.00;;;;;;;6.03;64.13;96127.97;8297340;28;20218;-74
2020/12/06 12:03:32;;;;;;;62.87;45.83;;;;;;;6.09;64.30;96121.66;8280723;28;20198;-73
2020/12/06 12:07:34;;;;;;;54.80;39.77;;;;;;;6.04;64.32;96133.97;8268096;28;20713;-74
2020/12/06 12:11:36;;;;;;;54.53;38.80;;;;;;;6.11;64.16;96135.28;8266873;28;20699;-74
2020/12/06 12:15:38;;;;;;;50.70;38.03;;;;;;;6.13;64.26;96138.59;8265906;28;20202;-73
2020/12/06 12:19:40;;;;;;;52.43;38.07;;;;;;;6.08;64.27;96143.16;8266141;28;20201;-74
2020/12/06 12:23:42;;;;;;;54.10;37.77;;;;;;;6.10;64.20;96128.47;8266002;28;20206;-74
2020/12/06 12:27:44;;;;;;;53.90;40.17;;;;;;;6.14;64.40;96135.09;8265293;28;20226;-74
2020/12/06 12:31:46;;;;;;;55.33;39.57;;;;;;;6.13;64.18;96130.03;8266115;28;20622;-75
2020/12/06 12:35:49;;;;;;;58.93;41.80;;;;;;;6.09;64.33;96128.56;8266355;28;20206;-75
2020/12/06 12:39:52;;;;;;;52.53;38.10;;;;;;;6.13;64.51;96119.75;8265138;28;20213;-76
2020/12/06 12:43:54;;;;;;;53.23;38.30;;;;;;;6.03;64.37;96117.69;8264589;28;20275;-76
2020/12/06 12:47:56;;;;;;;52.93;38.93;;;;;;;5.90;64.76;96113.28;8264895;28;20261;-76
2020/12/06 12:51:59;;;;;;;54.30;38.33;;;;;;;5.98;64.63;96117.16;8263432;28;20209;-74
2020/12/06 12:56:01;;;;;;;52.97;38.80;;;;;;;6.13;65.24;96112.91;8263864;28;20213;-78
2020/12/06 13:00:03;;;;;;;55.70;39.83;;;;;;;6.21;65.03;96122.75;8264663;28;20668;-76
2020/12/06 13:04:05;;;;;;;52.27;38.23;;;;;;;6.07;63.79;96119.22;8265048;28;20228;-76
2020/12/06 13:08:07;;;;;;;53.80;38.70;;;;;;;6.06;63.94;96122.69;8263628;28;20696;-76
2020/12/06 13:12:10;;;;;;;55.30;39.23;;;;;;;5.98;64.06;96147.16;8266292;28;20561;-76
2020/12/06 13:16:11;;;;;;;54.10;37.77;;;;;;;6.02;64.15;96152.03;8291384;28;20232;-76
2020/12/06 13:20:13;;;;;;;57.53;41.67;;;;;;;5.99;63.74;96152.19;8297840;28;20196;-77
2020/12/06 13:24:15;;;;;;;51.07;38.80;;;;;;;6.08;63.99;96140.59;8278907;28;20209;-76
2020/12/06 13:28:17;;;;;;;59.47;41.47;;;;;;;5.81;64.68;96146.28;8250829;28;20252;-76
2020/12/06 13:32:21;;;;;;;54.73;39.43;;;;;;;5.97;63.99;96145.47;8263571;28;20237;-77
2020/12/06 13:36:24;;;;;;;53.47;39.37;;;;;;;5.97;64.08;96130.88;8273582;28;20204;-76
2020/12/06 13:40:26;;;;;;;49.77;37.30;;;;;;;6.02;63.86;96130.66;8271960;28;20193;-77
2020/12/06 13:44:28;;;;;;;47.60;36.30;;;;;;;5.99;63.74;96120.53;8280728;28;20197;-77
2020/12/06 13:48:31;;;;;;;46.30;35.20;;;;;;;6.07;63.57;96129.50;8289788;28;20217;-77
2020/12/06 13:52:33;;;;;;;43.60;35.27;;;;;;;6.05;63.88;96120.19;8295244;28;20216;-76
2020/12/06 13:56:35;;;;;;;51.90;39.60;;;;;;;5.92;64.13;96129.44;8278654;28;20292;-76
2020/12/06 14:00:38;;;;;;;52.50;37.87;;;;;;;5.93;64.26;96143.97;8274809;28;20231;-76
2020/12/06 14:04:40;;;;;;;53.27;38.03;;;;;;;5.91;64.24;96138.91;8288087;28;20194;-77
2020/12/06 14:08:41;;;;;;;51.10;39.57;;;;;;;5.93;63.85;96154.25;8292044;28;20229;-77
2020/12/06 14:12:43;;;;;;;47.87;38.17;;;;;;;5.97;64.03;96169.44;8302155;28;20201;-77
2020/12/06 14:16:48;;;;;;;52.47;39.17;;;;;;;5.97;64.02;96158.34;8302922;28;20205;-76
2020/12/06 14:20:50;;;;;;;48.63;37.13;;;;;;;6.00;63.67;96135.88;8302165;28;20227;-77
2020/12/06 14:24:52;;;;;;;46.80;37.03;;;;;;;5.98;63.71;96137.69;8298360;28;20208;-76
2020/12/06 14:28:54;;;;;;;45.60;36.50;;;;;;;5.97;63.69;96127.50;8296105;28;20348;-76
2020/12/06 14:32:57;;;;;;;48.37;38.87;;;;;;;6.01;63.60;96141.81;8285656;28;20196;-77
2020/12/06 14:37:01;;;;;;;45.53;36.57;;;;;;;5.94;63.90;96153.31;8292410;28;20529;-77
2020/12/06 14:41:03;;;;;;;51.80;38.67;;;;;;;5.77;63.73;96137.09;8280170;28;20221;-76
2020/12/06 14:45:04;;;;;;;49.37;38.67;;;;;;;5.66;64.24;96134.28;8277256;28;20201;-76
2020/12/06 14:49:07;;;;;;;45.27;36.13;;;;;;;5.66;64.69;96145.38;8302313;28;20241;-75
2020/12/06 14:53:09;;;;;;;59.87;44.83;;;;;;;5.81;64.21;96153.19;8282064;28;20197;-75
2020/12/06 14:57:10;;;;;;;44.77;35.60;;;;;;;5.87;64.02;96161.38;8297237;28;20204;-76
2020/12/06 15:01:15;;;;;;;49.83;39.17;;;;;;;5.68;64.49;96171.81;8300029;28;20232;-75
2020/12/06 15:05:18;;;;;;;47.10;36.97;;;;;;;5.79;64.60;96178.13;8300083;28;20201;-76
2020/12/06 15:09:19;;;;;;;65.50;49.73;;;;;;;5.75;64.42;96163.75;8299553;28;20699;-75
2020/12/06 15:13:21;;;;;;;60.50;46.67;;;;;;;5.70;64.65;96182.00;8280793;28;20556;-76
2020/12/06 15:17:23;;;;;;;51.33;40.53;;;;;;;5.57;65.04;96198.97;8276323;28;20198;-76
2020/12/06 15:21:25;;;;;;;48.50;37.97;;;;;;;5.68;64.47;96183.81;8287662;28;20543;-76
2020/12/06 15:25:27;;;;;;;47.57;37.40;;;;;;;5.42;65.01;96182.63;8282084;28;20201;-77
2020/12/06 15:29:29;;;;;;;48.07;37.70;;;;;;;5.72;64.25;96167.34;8287791;28;20232;-76
2020/12/06 15:33:31;;;;;;;49.77;39.77;;;;;;;5.60;64.37;96183.41;8296808;28;20619;-76
2020/12/06 15:37:34;;;;;;;49.90;38.53;;;;;;;5.77;64.24;96172.22;8281352;28;20206;-76
2020/12/06 15:41:35;;;;;;;51.73;39.73;;;;;;;5.76;64.31;96161.13;8300425;28;20205;-77
2020/12/06 15:45:37;;;;;;;103.87;75.83;;;;;;;5.70;64.59;96163.19;8267677;28;20213;-75
2020/12/06 15:49:39;;;;;;;54.93;43.80;;;;;;;5.62;64.34;96158.47;8272491;28;20233;-75
2020/12/06 15:53:42;;;;;;;52.30;41.73;;;;;;;5.65;65.17;96153.16;8280891;28;20190;-75
2020/12/06 15:57:43;;;;;;;55.43;41.80;;;;;;;5.44;65.16;96160.25;8279944;28;20201;-75
2020/12/06 16:01:45;;;;;;;55.10;40.40;;;;;;;5.44;65.60;96155.13;8267318;28;20207;-76
2020/12/06 16:05:48;;;;;;;64.33;44.43;;;;;;;5.43;65.24;96156.06;8267667;28;20225;-76
2020/12/06 16:09:50;;;;;;;69.97;50.00;;;;;;;5.63;65.18;96154.97;8266567;28;20230;-77
2020/12/06 16:13:52;;;;;;;71.70;48.90;;;;;;;5.64;65.11;96156.66;8267421;28;20256;-75
2020/12/06 16:17:54;;;;;;;73.80;49.83;;;;;;;5.28;66.01;96149.97;8276063;28;20669;-76
2020/12/06 16:21:56;;;;;;;69.33;48.07;;;;;;;5.26;66.21;96154.38;8286134;28;20211;-76
2020/12/06 16:26:00;;;;;;;69.30;48.50;;;;;;;5.32;66.02;96146.34;8278855;28;20225;-74
2020/12/06 16:30:03;;;;;;;67.07;47.40;;;;;;;5.42;66.01;96138.97;8277169;28;20232;-76
2020/12/06 16:34:05;;;;;;;86.43;61.23;;;;;;;5.53;65.28;96133.28;8290755;28;20273;-75
2020/12/06 16:38:07;;;;;;;105.07;69.73;;;;;;;5.55;65.46;96134.84;8280428;28;20209;-76
2020/12/06 16:42:10;;;;;;;103.03;65.93;;;;;;;5.60;65.75;96138.00;8280855;28;20244;-76
2020/12/06 16:46:13;;;;;;;65.57;46.17;;;;;;;5.54;65.73;96125.50;8282083;28;20762;-76
2020/12/06 16:50:18;;;;;;;78.90;56.20;;;;;;;5.49;65.32;96124.91;8287791;28;20225;-76
2020/12/06 16:54:20;;;;;;;68.23;48.13;;;;;;;5.56;65.43;96123.69;8289505;28;20205;-76
2020/12/06 16:58:23;;;;;;;64.57;44.27;;;;;;;5.50;65.57;96108.56;8290910;28;20238;-76
2020/12/06 17:02:24;;;;;;;61.70;42.83;;;;;;;5.66;65.13;96114.56;8282022;28;20216;-76
2020/12/06 17:06:26;;;;;;;64.47;44.73;;;;;;;5.35;65.90;96112.81;8278239;28;20217;-74
2020/12/06 17:10:28;;;;;;;56.10;40.30;;;;;;;5.54;65.70;96115.22;8265196;28;20236;-74
2020/12/06 17:14:31;;;;;;;61.90;42.90;;;;;;;5.55;65.60;96114.31;8265104;28;20220;-75
2020/12/06 17:18:32;;;;;;;67.17;45.93;;;;;;;5.16;66.54;96115.53;8265082;28;20209;-74
2020/12/06 17:22:34;;;;;;;73.57;53.70;;;;;;;5.36;66.34;96129.88;8280096;28;20193;-75
2020/12/06 17:26:37;;;;;;;69.70;49.60;;;;;;;5.46;65.69;96137.91;8301074;28;20687;-76
2020/12/06 17:30:39;;;;;;;60.40;45.00;;;;;;;5.56;65.86;96136.53;8286762;28;20300;-76
2020/12/06 17:34:41;;;;;;;69.67;48.00;;;;;;;5.50;65.60;96144.53;8266671;28;20222;-75
2020/12/06 17:38:43;;;;;;;62.53;45.43;;;;;;;5.61;65.74;96137.09;8271328;28;20244;-74
2020/12/06 17:42:45;;;;;;;58.30;44.20;;;;;;;5.63;65.30;96121.59;8270741;28;20240;-73
2020/12/06 17:46:51;;;;;;;50.43;39.30;;;;;;;5.68;65.39;96120.44;8276753;28;20554;-73
2020/12/06 17:50:53;;;;;;;51.73;39.67;;;;;;;5.66;65.08;96124.00;8303025;28;20213;-73
2020/12/06 17:54:55;;;;;;;47.47;37.77;;;;;;;5.68;65.03;96120.44;8293711;28;20193;-73
2020/12/06 17:58:56;;;;;;;51.17;39.37;;;;;;;5.70;65.01;96109.28;8289279;28;20311;-73
2020/12/06 18:02:59;;;;;;;47.40;38.17;;;;;;;5.68;65.22;96099.88;8287590;28;20280;-73
2020/12/06 18:07:01;;;;;;;44.87;35.10;;;;;;;5.74;64.67;96113.31;8269670;28;20233;-73
2020/12/06 18:11:03;;;;;;;40.43;33.47;;;;;;;5.68;64.76;96104.22;8286558;28;20945;-69
2020/12/06 19:49:06;;;;;;;42.77;34.23;;;;;;;5.75;64.84;96045.59;8231899;28;20603;-77
2020/12/06 19:53:08;;;;;;;45.40;34.13;;;;;;;5.76;64.77;96042.13;8252260;28;20633;-77
2020/12/06 19:57:10;;;;;;;43.07;33.67;;;;;;;5.61;65.13;96046.38;8235540;28;20199;-77
2020/12/06 20:01:12;;;;;;;39.80;32.67;;;;;;;5.72;64.82;96040.66;8256394;28;20615;-77
2020/12/06 20:05:15;;;;;;;42.53;33.73;;;;;;;5.70;64.76;96038.19;8233005;28;20210;-76
2020/12/06 20:09:17;;;;;;;42.97;32.67;;;;;;;5.58;65.31;96021.72;8232984;28;20238;-76
2020/12/06 20:13:19;;;;;;;44.70;34.27;;;;;;;5.70;64.79;95986.81;8233527;28;20568;-76
2020/12/06 20:17:22;;;;;;;44.03;33.70;;;;;;;5.71;65.11;96001.28;8233361;28;20198;-77
2020/12/06 20:21:25;;;;;;;48.10;36.17;;;;;;;5.68;65.03;96012.56;8233446;28;20202;-76